Sunday, May 27, 2018, 5:39 AM EDT

KDYL, Doylestown Airport

Location: Doylestown, PA, United States Lat: 40.333
Local Time: 5:39 AM EDT ( 9:39 GMT) Lon: -75.117
Time Zone: US/Eastern Elev: 393 ft

Show me the last for .
Show Decoded

2018-05-27 05:27 METAR KDYL 270927Z AUTO 00000KT 6SM VCTS RA BR FEW014 BKN019 BKN043 22/22 A2986
                 RMK AO2 LTG DSNT E AND SE RAB19 P0005 T02220217 =
2018-05-27 05:11 METAR KDYL 270911Z AUTO 06003KT 10SM VCTS FEW037 BKN045 BKN065 22/22 A2986 RMK
                 AO2 LTG DSNT ALQDS T02220217 =
2018-05-27 04:54 METAR KDYL 270854Z AUTO 00000KT 10SM SCT046 BKN065 BKN080 22/22 A2986 RMK AO2
                 LTG DSNT NE AND SE SLP104 60000 T02220217 58003 =
2018-05-27 03:54 METAR KDYL 270754Z AUTO 00000KT 10SM OVC060 23/22 A2987 RMK AO2 LTG DSNT E
                 RAB01E11B34E47 SLP107 P0000 T02280217 =
2018-05-27 02:54 METAR KDYL 270654Z AUTO 00000KT 10SM BKN110 23/22 A2987 RMK AO2 RAE08 SLP107
                 P0000 T02330217 =
2018-05-27 01:54 METAR KDYL 270554Z AUTO 20004KT 10SM -RA FEW100 FEW120 24/22 A2987 RMK AO2 RAB30
                 SLP108 P0000 60000 T02390217 10283 20239 50001 =
2018-05-27 00:54 METAR KDYL 270454Z AUTO 19004KT 10SM SCT060 BKN090 BKN110 25/21 A2988 RMK AO2
                 SLP110 T02500211 403220194 =
2018-05-26 23:54 METAR KDYL 270354Z AUTO 19003KT 10SM CLR 24/21 A2988 RMK AO2 SLP110 T02440211 =
2018-05-26 22:54 METAR KDYL 270254Z AUTO 20004KT 10SM CLR 26/21 A2987 RMK AO2 SLP107 T02560206
                 51012 =
2018-05-26 21:54 METAR KDYL 270154Z AUTO 19003KT 10SM CLR 26/20 A2987 RMK AO2 SLP108 T02560200 =
2018-05-26 20:54 METAR KDYL 270054Z AUTO 20006KT 10SM FEW065 27/19 A2984 RMK AO2 LTG DSNT SE AND
                 S SLP098 T02720189 =
2018-05-26 19:54 METAR KDYL 262354Z AUTO 20003KT 10SM BKN065 28/19 A2983 RMK AO2 SLP095 T02830194
                 10322 20283 53011 =
2018-05-26 18:54 METAR KDYL 262254Z AUTO 27003KT 10SM CLR 31/18 A2981 RMK AO2 LTG DSNT SW SLP087
                 T03060178 =
2018-05-26 17:54 METAR KDYL 262154Z AUTO VRB03KT 10SM FEW065 32/18 A2980 RMK AO2 LTG DSNT S
                 SLP083 T03170178 =
2018-05-26 16:54 METAR KDYL 262054Z AUTO VRB05KT 10SM CLR 31/17 A2980 RMK AO2 LTG DSNT SW SLP084
                 T03110167 55006 =
2018-05-26 15:54 METAR KDYL 261954Z AUTO 24007KT 10SM FEW055 32/19 A2979 RMK AO2 SLP080 T03170189
                 =
2018-05-26 14:54 METAR KDYL 261854Z AUTO 26007KT 10SM CLR 32/19 A2980 RMK AO2 SLP085 T03170189 =
2018-05-26 13:54 METAR KDYL 261754Z AUTO 27007KT 10SM BKN046 BKN055 30/21 A2982 RMK AO2 SLP090
                 T03000206 10306 20233 56010 =
2018-05-26 12:54 METAR KDYL 261654Z AUTO 19007KT 160V220 10SM FEW045 29/21 A2983 RMK AO2 SLP093
                 T02940206 =
2018-05-26 11:54 METAR KDYL 261554Z AUTO 00000KT 10SM CLR 29/21 A2984 RMK AO2 SLP097 T02890206 =
2018-05-26 10:54 METAR KDYL 261454Z AUTO VRB03KT 10SM CLR 27/21 A2985 RMK AO2 SLP102 T02720206
                 58001 =
2018-05-26 09:54 METAR KDYL 261354Z AUTO 27003KT 10SM SCT090 25/20 A2986 RMK AO2 SLP105 T02500200
                 =
2018-05-26 08:54 METAR KDYL 261254Z AUTO 23005KT 10SM CLR 24/20 A2986 RMK AO2 SLP105 T02440200 =
2018-05-26 07:54 METAR KDYL 261154Z AUTO 22004KT 10SM CLR 23/19 A2985 RMK AO2 SLP103 T02330194
                 10233 20194 53004 =
2018-05-26 06:54 METAR KDYL 261054Z AUTO 21003KT 10SM CLR 21/18 A2984 RMK AO2 SLP100 T02060183 =
2018-05-26 05:54 METAR KDYL 260954Z AUTO 00000KT 10SM CLR 20/18 A2984 RMK AO2 SLP099 T02000183 =

Support USWX by starting your Amazon purchase here.